Time;durP1;ratioP1;P1;durP2;ratioP2;P2;SDS_P1;SDS_P2;PMS_P1;PMS_P2;Temp;Humidity;BMP_temperature;BMP_pressure;BME280_temperature;BME280_humidity;BME280_pressure;Samples;Min_cycle;Max_cycle;Signal;HPM_P1;HPM_P2
2022/12/16 00:01:29;;;;;;;83.90;30.83;;;;;;;;;;6213062;23;20213;-89
2022/12/16 00:04:35;;;;;;;74.23;28.93;;;;;;;;;;6214336;23;20170;-91
2022/12/16 00:07:40;;;;;;;74.37;29.03;;;;;;;;;;6212770;23;20170;-87
2022/12/16 00:10:55;;;;;;;74.30;27.87;;;;;;;;;;6213191;23;20175;-90
2022/12/16 00:14:00;;;;;;;71.83;27.97;;;;;;;;;;6212556;23;20155;-86
2022/12/16 00:17:07;;;;;;;77.80;30.00;;;;;;;;;;6212905;23;20195;-89
2022/12/16 00:20:13;;;;;;;77.63;29.83;;;;;;;;;;6214186;23;20171;-91
2022/12/16 00:23:18;;;;;;;80.63;29.47;;;;;;;;;;6213468;23;20235;-91
2022/12/16 00:26:24;;;;;;;81.67;31.57;;;;;;;;;;6215545;23;20166;-89
2022/12/16 00:29:31;;;;;;;81.60;30.37;;;;;;;;;;6232085;23;20167;-88
2022/12/16 00:32:52;;;;;;;85.40;29.90;;;;;;;;;;6215187;23;20200;-88
2022/12/16 00:35:58;;;;;;;74.37;29.20;;;;;;;;;;6215564;22;20194;-90
2022/12/16 00:39:03;;;;;;;73.70;28.77;;;;;;;;;;6214142;23;20187;-89
2022/12/16 00:42:15;;;;;;;74.13;28.43;;;;;;;;;;6213794;22;20166;-89
2022/12/16 00:45:20;;;;;;;79.73;29.37;;;;;;;;;;6213289;23;20595;-88
2022/12/16 00:48:28;;;;;;;77.43;29.80;;;;;;;;;;6213041;23;20178;-90
2022/12/16 00:51:33;;;;;;;76.53;29.27;;;;;;;;;;6213285;23;20175;-90
2022/12/16 00:54:39;;;;;;;78.80;28.30;;;;;;;;;;6218719;23;20212;-88
2022/12/16 00:57:46;;;;;;;74.30;28.87;;;;;;;;;;6216062;23;20205;-87
2022/12/16 01:00:52;;;;;;;69.57;27.33;;;;;;;;;;6213161;23;20155;-87
2022/12/16 01:03:59;;;;;;;72.57;27.30;;;;;;;;;;6212048;23;20270;-89
2022/12/16 01:07:04;;;;;;;70.20;25.53;;;;;;;;;;6212986;23;20170;-87
2022/12/16 01:10:10;;;;;;;73.87;27.20;;;;;;;;;;6231407;23;20171;-90
2022/12/16 01:13:15;;;;;;;64.70;27.07;;;;;;;;;;6213865;23;20233;-89
2022/12/16 01:16:20;;;;;;;75.77;28.07;;;;;;;;;;6213339;22;20199;-89
2022/12/16 01:19:27;;;;;;;87.93;32.10;;;;;;;;;;6213378;23;20215;-91
2022/12/16 01:22:33;;;;;;;68.77;26.70;;;;;;;;;;6213356;23;20175;-91
2022/12/16 01:25:38;;;;;;;68.03;26.33;;;;;;;;;;6211859;23;20168;-89
2022/12/16 01:28:43;;;;;;;65.70;25.87;;;;;;;;;;6212200;23;20183;-88
2022/12/16 01:31:49;;;;;;;68.90;26.07;;;;;;;;;;6213233;22;20614;-89
2022/12/16 01:34:56;;;;;;;68.60;26.03;;;;;;;;;;6212929;23;20171;-90
2022/12/16 01:38:01;;;;;;;76.57;28.10;;;;;;;;;;6212060;23;20167;-90
2022/12/16 01:41:07;;;;;;;90.47;30.37;;;;;;;;;;6211437;23;20175;-90
2022/12/16 01:44:26;;;;;;;73.63;26.40;;;;;;;;;;6210924;23;20175;-89
2022/12/16 01:47:33;;;;;;;73.33;27.63;;;;;;;;;;6212547;23;20167;-90
2022/12/16 01:50:40;;;;;;;69.00;26.13;;;;;;;;;;6212326;23;20195;-89
2022/12/16 01:53:45;;;;;;;71.80;25.67;;;;;;;;;;6212010;23;20179;-90
2022/12/16 01:56:52;;;;;;;70.67;26.03;;;;;;;;;;6212854;23;20262;-89
2022/12/16 01:59:58;;;;;;;66.03;25.00;;;;;;;;;;6212812;23;20206;-89
2022/12/16 02:03:03;;;;;;;67.53;25.20;;;;;;;;;;6212442;23;20228;-91
2022/12/16 02:06:10;;;;;;;68.87;26.37;;;;;;;;;;6213588;23;20210;-89
2022/12/16 02:09:15;;;;;;;66.50;26.03;;;;;;;;;;6212578;23;20250;-92
2022/12/16 02:12:26;;;;;;;71.73;27.43;;;;;;;;;;6211785;23;20171;-88
2022/12/16 02:15:38;;;;;;;72.17;26.70;;;;;;;;;;6212658;22;20194;-88
2022/12/16 02:18:46;;;;;;;68.47;25.63;;;;;;;;;;6211028;22;20227;-89
2022/12/16 02:21:57;;;;;;;67.30;26.20;;;;;;;;;;6211756;23;20218;-91
2022/12/16 02:25:11;;;;;;;75.40;28.57;;;;;;;;;;6210504;23;20675;-90
2022/12/16 02:28:24;;;;;;;64.60;25.80;;;;;;;;;;6210147;23;20206;-92
2022/12/16 02:31:33;;;;;;;69.63;27.43;;;;;;;;;;6210301;23;20191;-91
2022/12/16 02:34:42;;;;;;;66.80;25.97;;;;;;;;;;6211528;23;20194;-88
2022/12/16 02:37:52;;;;;;;67.03;25.73;;;;;;;;;;6212914;23;20187;-88
2022/12/16 02:41:02;;;;;;;68.50;25.63;;;;;;;;;;6213240;22;20287;-90
2022/12/16 02:44:08;;;;;;;69.40;25.13;;;;;;;;;;6212555;23;20222;-88
2022/12/16 02:47:15;;;;;;;65.23;25.77;;;;;;;;;;6212430;23;20614;-91
2022/12/16 02:50:22;;;;;;;65.40;26.37;;;;;;;;;;6212242;23;20171;-92
2022/12/16 02:53:37;;;;;;;61.20;25.23;;;;;;;;;;6212360;23;20194;-91
2022/12/16 02:56:50;;;;;;;62.57;25.03;;;;;;;;;;6211250;23;20242;-89
2022/12/16 03:00:01;;;;;;;70.03;26.80;;;;;;;;;;6211596;23;20194;-91
2022/12/16 03:03:09;;;;;;;71.20;26.63;;;;;;;;;;6211122;23;20159;-90
2022/12/16 03:06:15;;;;;;;69.10;25.80;;;;;;;;;;6211680;23;20179;-89
2022/12/16 03:09:21;;;;;;;76.37;28.07;;;;;;;;;;6211319;23;20254;-91
2022/12/16 03:12:27;;;;;;;70.37;26.53;;;;;;;;;;6210083;23;20175;-89
2022/12/16 03:15:33;;;;;;;67.87;24.93;;;;;;;;;;6211252;23;20220;-87
2022/12/16 03:18:43;;;;;;;69.67;25.90;;;;;;;;;;6211224;23;20163;-87
2022/12/16 03:21:51;;;;;;;64.00;24.93;;;;;;;;;;6210476;23;20303;-89
2022/12/16 03:24:57;;;;;;;72.80;26.57;;;;;;;;;;6210178;23;20171;-89
2022/12/16 03:28:04;;;;;;;55.53;22.50;;;;;;;;;;6208749;23;20622;-90
2022/12/16 03:31:16;;;;;;;55.47;23.73;;;;;;;;;;6210059;23;20148;-89
2022/12/16 03:34:28;;;;;;;55.63;22.60;;;;;;;;;;6210693;23;20159;-91
2022/12/16 03:37:36;;;;;;;53.67;22.20;;;;;;;;;;6210573;23;20199;-90
2022/12/16 03:40:42;;;;;;;56.60;21.63;;;;;;;;;;6227237;22;20171;-89
2022/12/16 03:43:48;;;;;;;54.70;21.40;;;;;;;;;;6211506;23;20171;-87
2022/12/16 03:46:53;;;;;;;48.70;20.47;;;;;;;;;;6211374;23;20171;-89
2022/12/16 03:50:00;;;;;;;50.13;21.00;;;;;;;;;;6213247;23;20163;-93
2022/12/16 03:53:17;;;;;;;48.63;19.90;;;;;;;;;;6212407;23;20506;-90
2022/12/16 03:56:22;;;;;;;49.97;19.77;;;;;;;;;;6211629;23;20191;-90
2022/12/16 03:59:27;;;;;;;44.17;19.90;;;;;;;;;;6211710;22;20194;-89
2022/12/16 04:02:32;;;;;;;46.60;20.30;;;;;;;;;;6211524;23;20194;-90
2022/12/16 04:05:39;;;;;;;48.27;21.40;;;;;;;;;;6211584;23;20167;-91
2022/12/16 04:08:45;;;;;;;46.33;19.73;;;;;;;;;;6212164;23;20669;-89
2022/12/16 04:25:25;;;;;;;49.07;21.80;;;;;;;;;;6211015;23;20167;-90
2022/12/16 04:28:31;;;;;;;51.53;23.13;;;;;;;;;;6211232;22;20175;-88
2022/12/16 04:31:36;;;;;;;55.63;22.20;;;;;;;;;;6212515;23;20199;-91
2022/12/16 04:34:43;;;;;;;49.87;22.43;;;;;;;;;;6211805;23;20172;-89
